sensor_id;sensor_type;location;lat;lon;timestamp;P1;durP1;ratioP1;P2;durP2;ratioP2
80381;SDS011;69692;55.820;37.490;2024-01-15T00:00:20;10.45;;;6.13;;
80381;SDS011;69692;55.820;37.490;2024-01-15T00:02:47;10.90;;;6.50;;
80381;SDS011;69692;55.820;37.490;2024-01-15T00:05:13;11.30;;;6.40;;
80381;SDS011;69692;55.820;37.490;2024-01-15T00:07:39;13.50;;;7.60;;
80381;SDS011;69692;55.820;37.490;2024-01-15T00:10:04;12.68;;;6.43;;
80381;SDS011;69692;55.820;37.490;2024-01-15T00:12:31;10.32;;;5.93;;
80381;SDS011;69692;55.820;37.490;2024-01-15T00:14:57;11.32;;;6.70;;
80381;SDS011;69692;55.820;37.490;2024-01-15T00:17:23;12.25;;;7.20;;
80381;SDS011;69692;55.820;37.490;2024-01-15T00:19:48;13.48;;;7.22;;
80381;SDS011;69692;55.820;37.490;2024-01-15T00:22:14;14.10;;;6.85;;
80381;SDS011;69692;55.820;37.490;2024-01-15T00:24:40;12.27;;;7.15;;
80381;SDS011;69692;55.820;37.490;2024-01-15T00:27:06;14.65;;;7.93;;
80381;SDS011;69692;55.820;37.490;2024-01-15T00:29:32;11.73;;;6.68;;
80381;SDS011;69692;55.820;37.490;2024-01-15T00:31:58;14.43;;;6.82;;
80381;SDS011;69692;55.820;37.490;2024-01-15T00:34:23;15.40;;;7.75;;
80381;SDS011;69692;55.820;37.490;2024-01-15T00:36:49;10.55;;;6.47;;
80381;SDS011;69692;55.820;37.490;2024-01-15T00:39:15;12.20;;;7.03;;
80381;SDS011;69692;55.820;37.490;2024-01-15T00:41:42;11.70;;;6.40;;
80381;SDS011;69692;55.820;37.490;2024-01-15T00:44:08;11.93;;;7.47;;
80381;SDS011;69692;55.820;37.490;2024-01-15T00:46:41;13.23;;;7.75;;
80381;SDS011;69692;55.820;37.490;2024-01-15T00:49:08;11.65;;;7.43;;
80381;SDS011;69692;55.820;37.490;2024-01-15T00:51:34;10.25;;;6.63;;
80381;SDS011;69692;55.820;37.490;2024-01-15T00:54:00;11.80;;;7.07;;
80381;SDS011;69692;55.820;37.490;2024-01-15T00:56:26;11.98;;;6.30;;
80381;SDS011;69692;55.820;37.490;2024-01-15T00:58:52;12.02;;;6.80;;
80381;SDS011;69692;55.820;37.490;2024-01-15T01:01:18;14.18;;;7.75;;
80381;SDS011;69692;55.820;37.490;2024-01-15T01:03:44;13.73;;;7.80;;
80381;SDS011;69692;55.820;37.490;2024-01-15T01:06:09;15.00;;;8.45;;
80381;SDS011;69692;55.820;37.490;2024-01-15T01:08:35;11.63;;;7.85;;
80381;SDS011;69692;55.820;37.490;2024-01-15T01:11:01;11.27;;;7.72;;
80381;SDS011;69692;55.820;37.490;2024-01-15T01:13:27;13.50;;;7.28;;
80381;SDS011;69692;55.820;37.490;2024-01-15T01:15:53;9.38;;;6.03;;
80381;SDS011;69692;55.820;37.490;2024-01-15T01:18:19;10.38;;;7.50;;
80381;SDS011;69692;55.820;37.490;2024-01-15T01:20:45;11.65;;;7.03;;
80381;SDS011;69692;55.820;37.490;2024-01-15T01:23:10;16.60;;;6.85;;
80381;SDS011;69692;55.820;37.490;2024-01-15T01:25:36;12.15;;;7.85;;
80381;SDS011;69692;55.820;37.490;2024-01-15T01:28:02;13.52;;;7.93;;
80381;SDS011;69692;55.820;37.490;2024-01-15T01:30:28;13.30;;;7.88;;
80381;SDS011;69692;55.820;37.490;2024-01-15T01:32:54;12.30;;;7.55;;
80381;SDS011;69692;55.820;37.490;2024-01-15T01:35:20;13.90;;;8.25;;
80381;SDS011;69692;55.820;37.490;2024-01-15T01:37:46;12.40;;;8.25;;
80381;SDS011;69692;55.820;37.490;2024-01-15T01:40:12;14.52;;;8.38;;
80381;SDS011;69692;55.820;37.490;2024-01-15T01:42:37;9.40;;;5.70;;
80381;SDS011;69692;55.820;37.490;2024-01-15T01:45:03;16.63;;;7.85;;
80381;SDS011;69692;55.820;37.490;2024-01-15T01:47:30;14.23;;;7.55;;
80381;SDS011;69692;55.820;37.490;2024-01-15T01:49:57;14.65;;;8.10;;
80381;SDS011;69692;55.820;37.490;2024-01-15T01:52:23;12.00;;;7.22;;
80381;SDS011;69692;55.820;37.490;2024-01-15T01:54:49;13.80;;;7.63;;
80381;SDS011;69692;55.820;37.490;2024-01-15T01:57:16;15.02;;;7.95;;
80381;SDS011;69692;55.820;37.490;2024-01-15T01:59:43;11.30;;;7.68;;
80381;SDS011;69692;55.820;37.490;2024-01-15T02:02:10;14.13;;;8.55;;
80381;SDS011;69692;55.820;37.490;2024-01-15T02:04:36;15.27;;;8.30;;
80381;SDS011;69692;55.820;37.490;2024-01-15T02:07:03;12.95;;;7.07;;
80381;SDS011;69692;55.820;37.490;2024-01-15T02:09:29;13.95;;;7.57;;
80381;SDS011;69692;55.820;37.490;2024-01-15T02:11:55;12.07;;;7.80;;
80381;SDS011;69692;55.820;37.490;2024-01-15T02:14:21;12.93;;;7.65;;
80381;SDS011;69692;55.820;37.490;2024-01-15T02:16:48;12.40;;;7.60;;
80381;SDS011;69692;55.820;37.490;2024-01-15T02:19:14;13.85;;;8.10;;
80381;SDS011;69692;55.820;37.490;2024-01-15T02:21:42;12.63;;;7.70;;
80381;SDS011;69692;55.820;37.490;2024-01-15T02:24:08;14.73;;;8.52;;
80381;SDS011;69692;55.820;37.490;2024-01-15T02:26:34;15.95;;;7.63;;
80381;SDS011;69692;55.820;37.490;2024-01-15T02:29:02;9.95;;;5.63;;
80381;SDS011;69692;55.820;37.490;2024-01-15T02:31:29;12.88;;;8.02;;
80381;SDS011;69692;55.820;37.490;2024-01-15T02:33:55;13.32;;;7.82;;
80381;SDS011;69692;55.820;37.490;2024-01-15T02:36:20;14.18;;;8.40;;
80381;SDS011;69692;55.820;37.490;2024-01-15T02:38:46;13.95;;;7.93;;
80381;SDS011;69692;55.820;37.490;2024-01-15T02:41:12;13.82;;;8.35;;
80381;SDS011;69692;55.820;37.490;2024-01-15T02:43:40;13.27;;;7.80;;
80381;SDS011;69692;55.820;37.490;2024-01-15T02:46:07;16.10;;;7.50;;
80381;SDS011;69692;55.820;37.490;2024-01-15T02:48:33;18.73;;;8.15;;
80381;SDS011;69692;55.820;37.490;2024-01-15T02:51:01;12.30;;;8.45;;
80381;SDS011;69692;55.820;37.490;2024-01-15T02:53:28;13.00;;;8.02;;
80381;SDS011;69692;55.820;37.490;2024-01-15T02:55:54;19.08;;;9.65;;
80381;SDS011;69692;55.820;37.490;2024-01-15T02:58:21;12.18;;;7.72;;
80381;SDS011;69692;55.820;37.490;2024-01-15T03:00:47;13.65;;;8.18;;
80381;SDS011;69692;55.820;37.490;2024-01-15T03:03:13;17.08;;;8.88;;
80381;SDS011;69692;55.820;37.490;2024-01-15T03:05:39;14.70;;;8.13;;
80381;SDS011;69692;55.820;37.490;2024-01-15T03:08:05;15.30;;;7.43;;
80381;SDS011;69692;55.820;37.490;2024-01-15T03:10:31;13.23;;;8.70;;
80381;SDS011;69692;55.820;37.490;2024-01-15T03:12:57;17.02;;;9.20;;
80381;SDS011;69692;55.820;37.490;2024-01-15T03:15:23;15.48;;;8.65;;
80381;SDS011;69692;55.820;37.490;2024-01-15T03:17:49;16.25;;;8.85;;
80381;SDS011;69692;55.820;37.490;2024-01-15T03:20:15;14.45;;;9.10;;
80381;SDS011;69692;55.820;37.490;2024-01-15T03:22:41;17.52;;;8.68;;
80381;SDS011;69692;55.820;37.490;2024-01-15T03:25:07;13.65;;;8.93;;
80381;SDS011;69692;55.820;37.490;2024-01-15T03:27:33;15.38;;;9.25;;
80381;SDS011;69692;55.820;37.490;2024-01-15T03:29:59;17.17;;;8.10;;
80381;SDS011;69692;55.820;37.490;2024-01-15T03:32:25;14.15;;;7.97;;
80381;SDS011;69692;55.820;37.490;2024-01-15T03:34:51;14.20;;;8.45;;
80381;SDS011;69692;55.820;37.490;2024-01-15T03:37:18;13.88;;;8.40;;
80381;SDS011;69692;55.820;37.490;2024-01-15T03:39:45;13.20;;;7.68;;
80381;SDS011;69692;55.820;37.490;2024-01-15T03:42:11;12.63;;;7.95;;
80381;SDS011;69692;55.820;37.490;2024-01-15T03:44:37;16.77;;;9.48;;
80381;SDS011;69692;55.820;37.490;2024-01-15T03:47:04;15.10;;;8.82;;
80381;SDS011;69692;55.820;37.490;2024-01-15T03:49:30;21.90;;;9.90;;
80381;SDS011;69692;55.820;37.490;2024-01-15T03:51:56;11.70;;;6.85;;
80381;SDS011;69692;55.820;37.490;2024-01-15T03:54:21;16.20;;;10.48;;
80381;SDS011;69692;55.820;37.490;2024-01-15T03:56:48;16.40;;;8.82;;
80381;SDS011;69692;55.820;37.490;2024-01-15T03:59:13;18.95;;;9.48;;
80381;SDS011;69692;55.820;37.490;2024-01-15T04:01:40;17.98;;;9.15;;
80381;SDS011;69692;55.820;37.490;2024-01-15T04:04:06;14.85;;;9.50;;
80381;SDS011;69692;55.820;37.490;2024-01-15T04:06:31;12.68;;;8.77;;
80381;SDS011;69692;55.820;37.490;2024-01-15T04:08:58;14.02;;;8.82;;
80381;SDS011;69692;55.820;37.490;2024-01-15T04:11:24;15.07;;;9.45;;
80381;SDS011;69692;55.820;37.490;2024-01-15T04:13:50;16.20;;;8.82;;
80381;SDS011;69692;55.820;37.490;2024-01-15T04:16:16;14.80;;;8.77;;
80381;SDS011;69692;55.820;37.490;2024-01-15T04:18:42;15.93;;;9.10;;
80381;SDS011;69692;55.820;37.490;2024-01-15T04:21:08;16.02;;;9.73;;
80381;SDS011;69692;55.820;37.490;2024-01-15T04:23:34;21.77;;;9.55;;
80381;SDS011;69692;55.820;37.490;2024-01-15T04:25:59;17.25;;;8.93;;
80381;SDS011;69692;55.820;37.490;2024-01-15T04:28:25;16.45;;;10.23;;
80381;SDS011;69692;55.820;37.490;2024-01-15T04:30:51;16.77;;;9.23;;
80381;SDS011;69692;55.820;37.490;2024-01-15T04:33:17;17.58;;;9.73;;
80381;SDS011;69692;55.820;37.490;2024-01-15T04:35:43;19.45;;;10.77;;
80381;SDS011;69692;55.820;37.490;2024-01-15T04:38:09;19.48;;;9.93;;
80381;SDS011;69692;55.820;37.490;2024-01-15T04:40:35;19.13;;;10.73;;
80381;SDS011;69692;55.820;37.490;2024-01-15T04:43:01;18.85;;;11.20;;
80381;SDS011;69692;55.820;37.490;2024-01-15T04:45:27;18.98;;;10.38;;
80381;SDS011;69692;55.820;37.490;2024-01-15T04:47:55;20.17;;;10.65;;
80381;SDS011;69692;55.820;37.490;2024-01-15T04:50:22;18.45;;;9.48;;
80381;SDS011;69692;55.820;37.490;2024-01-15T04:52:49;16.63;;;10.02;;
80381;SDS011;69692;55.820;37.490;2024-01-15T04:55:15;21.25;;;9.70;;
80381;SDS011;69692;55.820;37.490;2024-01-15T04:57:41;15.35;;;9.85;;
80381;SDS011;69692;55.820;37.490;2024-01-15T05:00:07;16.52;;;9.15;;
80381;SDS011;69692;55.820;37.490;2024-01-15T05:02:33;13.90;;;9.18;;
80381;SDS011;69692;55.820;37.490;2024-01-15T05:04:59;19.10;;;10.73;;
80381;SDS011;69692;55.820;37.490;2024-01-15T05:07:25;17.95;;;9.45;;
80381;SDS011;69692;55.820;37.490;2024-01-15T05:09:51;18.65;;;10.50;;
80381;SDS011;69692;55.820;37.490;2024-01-15T05:12:17;16.45;;;10.63;;
80381;SDS011;69692;55.820;37.490;2024-01-15T05:14:43;17.30;;;9.93;;
80381;SDS011;69692;55.820;37.490;2024-01-15T05:17:09;18.77;;;10.20;;
80381;SDS011;69692;55.820;37.490;2024-01-15T05:19:34;17.52;;;9.80;;
80381;SDS011;69692;55.820;37.490;2024-01-15T05:22:01;16.58;;;9.90;;
80381;SDS011;69692;55.820;37.490;2024-01-15T05:24:26;17.58;;;9.35;;
80381;SDS011;69692;55.820;37.490;2024-01-15T05:26:53;16.20;;;10.02;;
80381;SDS011;69692;55.820;37.490;2024-01-15T05:29:18;15.82;;;9.88;;
80381;SDS011;69692;55.820;37.490;2024-01-15T05:31:44;18.27;;;9.98;;
80381;SDS011;69692;55.820;37.490;2024-01-15T05:34:10;18.20;;;10.95;;
80381;SDS011;69692;55.820;37.490;2024-01-15T05:36:37;21.25;;;13.38;;
80381;SDS011;69692;55.820;37.490;2024-01-15T05:39:03;19.33;;;10.40;;
80381;SDS011;69692;55.820;37.490;2024-01-15T05:41:29;18.10;;;11.13;;
80381;SDS011;69692;55.820;37.490;2024-01-15T05:43:55;16.45;;;9.38;;
80381;SDS011;69692;55.820;37.490;2024-01-15T05:46:21;16.77;;;9.70;;
80381;SDS011;69692;55.820;37.490;2024-01-15T05:48:47;16.25;;;8.75;;
80381;SDS011;69692;55.820;37.490;2024-01-15T05:51:13;19.20;;;11.63;;
80381;SDS011;69692;55.820;37.490;2024-01-15T05:53:39;20.42;;;11.18;;
80381;SDS011;69692;55.820;37.490;2024-01-15T05:56:07;16.13;;;9.93;;
80381;SDS011;69692;55.820;37.490;2024-01-15T05:58:33;18.02;;;10.52;;
80381;SDS011;69692;55.820;37.490;2024-01-15T06:01:17;19.35;;;10.30;;
80381;SDS011;69692;55.820;37.490;2024-01-15T06:03:43;16.60;;;10.57;;
80381;SDS011;69692;55.820;37.490;2024-01-15T06:06:09;18.58;;;10.15;;
80381;SDS011;69692;55.820;37.490;2024-01-15T06:08:35;17.98;;;10.48;;
80381;SDS011;69692;55.820;37.490;2024-01-15T06:11:01;19.27;;;10.75;;
80381;SDS011;69692;55.820;37.490;2024-01-15T06:13:26;17.98;;;10.05;;
80381;SDS011;69692;55.820;37.490;2024-01-15T06:15:52;16.95;;;10.50;;
80381;SDS011;69692;55.820;37.490;2024-01-15T06:18:18;21.33;;;9.90;;
80381;SDS011;69692;55.820;37.490;2024-01-15T06:20:44;15.82;;;10.43;;
80381;SDS011;69692;55.820;37.490;2024-01-15T06:23:10;24.92;;;12.00;;
80381;SDS011;69692;55.820;37.490;2024-01-15T06:25:36;16.25;;;8.80;;
80381;SDS011;69692;55.820;37.490;2024-01-15T06:28:02;19.90;;;10.52;;
80381;SDS011;69692;55.820;37.490;2024-01-15T06:30:28;21.65;;;11.18;;
80381;SDS011;69692;55.820;37.490;2024-01-15T06:32:55;17.60;;;9.82;;
80381;SDS011;69692;55.820;37.490;2024-01-15T06:35:21;18.13;;;10.40;;
80381;SDS011;69692;55.820;37.490;2024-01-15T06:37:47;19.20;;;10.88;;
80381;SDS011;69692;55.820;37.490;2024-01-15T06:40:12;17.50;;;10.18;;
80381;SDS011;69692;55.820;37.490;2024-01-15T06:42:38;18.98;;;9.40;;
80381;SDS011;69692;55.820;37.490;2024-01-15T06:45:04;22.50;;;12.05;;
80381;SDS011;69692;55.820;37.490;2024-01-15T06:47:31;17.23;;;11.00;;
80381;SDS011;69692;55.820;37.490;2024-01-15T06:49:57;20.65;;;10.88;;
80381;SDS011;69692;55.820;37.490;2024-01-15T06:52:24;18.98;;;10.07;;
80381;SDS011;69692;55.820;37.490;2024-01-15T06:54:50;13.70;;;8.40;;
80381;SDS011;69692;55.820;37.490;2024-01-15T06:57:15;21.77;;;10.43;;
80381;SDS011;69692;55.820;37.490;2024-01-15T06:59:42;20.08;;;10.25;;
80381;SDS011;69692;55.820;37.490;2024-01-15T07:02:07;15.02;;;8.38;;
80381;SDS011;69692;55.820;37.490;2024-01-15T07:04:33;17.60;;;10.20;;
80381;SDS011;69692;55.820;37.490;2024-01-15T07:06:59;17.63;;;11.20;;
80381;SDS011;69692;55.820;37.490;2024-01-15T07:09:25;15.18;;;9.77;;
80381;SDS011;69692;55.820;37.490;2024-01-15T07:11:51;21.15;;;11.13;;
80381;SDS011;69692;55.820;37.490;2024-01-15T07:14:17;17.25;;;10.45;;
80381;SDS011;69692;55.820;37.490;2024-01-15T07:16:43;18.52;;;10.82;;
80381;SDS011;69692;55.820;37.490;2024-01-15T07:19:08;18.73;;;10.63;;
80381;SDS011;69692;55.820;37.490;2024-01-15T07:21:34;18.23;;;10.70;;
80381;SDS011;69692;55.820;37.490;2024-01-15T07:24:00;15.10;;;9.95;;
80381;SDS011;69692;55.820;37.490;2024-01-15T07:26:26;18.20;;;9.75;;
80381;SDS011;69692;55.820;37.490;2024-01-15T07:28:52;17.20;;;10.00;;
80381;SDS011;69692;55.820;37.490;2024-01-15T07:31:18;18.05;;;9.43;;
80381;SDS011;69692;55.820;37.490;2024-01-15T07:33:44;17.75;;;11.48;;
80381;SDS011;69692;55.820;37.490;2024-01-15T07:36:10;17.92;;;10.32;;
80381;SDS011;69692;55.820;37.490;2024-01-15T07:38:36;18.17;;;10.65;;
80381;SDS011;69692;55.820;37.490;2024-01-15T07:41:02;17.38;;;10.35;;
80381;SDS011;69692;55.820;37.490;2024-01-15T07:43:29;17.98;;;10.65;;
80381;SDS011;69692;55.820;37.490;2024-01-15T07:45:55;17.83;;;9.80;;
80381;SDS011;69692;55.820;37.490;2024-01-15T07:48:21;16.80;;;10.00;;
80381;SDS011;69692;55.820;37.490;2024-01-15T07:50:47;16.02;;;9.82;;
80381;SDS011;69692;55.820;37.490;2024-01-15T07:53:13;17.98;;;9.25;;
80381;SDS011;69692;55.820;37.490;2024-01-15T07:55:38;16.45;;;10.15;;
80381;SDS011;69692;55.820;37.490;2024-01-15T07:58:04;18.20;;;10.35;;
80381;SDS011;69692;55.820;37.490;2024-01-15T08:00:30;16.55;;;8.98;;
80381;SDS011;69692;55.820;37.490;2024-01-15T08:02:56;16.88;;;9.10;;
80381;SDS011;69692;55.820;37.490;2024-01-15T08:05:22;14.90;;;9.57;;
80381;SDS011;69692;55.820;37.490;2024-01-15T08:07:48;14.45;;;8.50;;
80381;SDS011;69692;55.820;37.490;2024-01-15T08:10:14;16.83;;;11.82;;
80381;SDS011;69692;55.820;37.490;2024-01-15T08:12:40;19.77;;;10.70;;
80381;SDS011;69692;55.820;37.490;2024-01-15T08:15:06;18.05;;;9.70;;
80381;SDS011;69692;55.820;37.490;2024-01-15T08:17:32;18.00;;;10.10;;
80381;SDS011;69692;55.820;37.490;2024-01-15T08:19:58;17.73;;;9.60;;
80381;SDS011;69692;55.820;37.490;2024-01-15T08:22:25;19.02;;;10.35;;
80381;SDS011;69692;55.820;37.490;2024-01-15T08:24:50;15.60;;;9.60;;
80381;SDS011;69692;55.820;37.490;2024-01-15T08:27:17;17.90;;;9.73;;
80381;SDS011;69692;55.820;37.490;2024-01-15T08:29:43;15.38;;;8.57;;
80381;SDS011;69692;55.820;37.490;2024-01-15T08:32:10;16.45;;;10.40;;
80381;SDS011;69692;55.820;37.490;2024-01-15T08:34:39;15.15;;;9.25;;
80381;SDS011;69692;55.820;37.490;2024-01-15T08:37:05;17.73;;;9.50;;
80381;SDS011;69692;55.820;37.490;2024-01-15T08:39:31;16.75;;;10.25;;
80381;SDS011;69692;55.820;37.490;2024-01-15T08:41:57;15.05;;;8.95;;
80381;SDS011;69692;55.820;37.490;2024-01-15T08:44:23;12.05;;;8.43;;
80381;SDS011;69692;55.820;37.490;2024-01-15T08:46:49;17.92;;;10.38;;
80381;SDS011;69692;55.820;37.490;2024-01-15T08:49:14;15.52;;;9.73;;
80381;SDS011;69692;55.820;37.490;2024-01-15T08:51:40;16.90;;;10.13;;
80381;SDS011;69692;55.820;37.490;2024-01-15T08:54:06;17.65;;;9.70;;
80381;SDS011;69692;55.820;37.490;2024-01-15T08:56:33;19.05;;;9.68;;
80381;SDS011;69692;55.820;37.490;2024-01-15T08:59:00;15.30;;;8.35;;
80381;SDS011;69692;55.820;37.490;2024-01-15T09:01:26;18.13;;;10.05;;
80381;SDS011;69692;55.820;37.490;2024-01-15T09:03:52;16.80;;;10.20;;
80381;SDS011;69692;55.820;37.490;2024-01-15T09:06:17;16.05;;;9.40;;
80381;SDS011;69692;55.820;37.490;2024-01-15T09:08:44;18.05;;;9.45;;
80381;SDS011;69692;55.820;37.490;2024-01-15T09:11:10;15.63;;;9.90;;
80381;SDS011;69692;55.820;37.490;2024-01-15T09:13:36;16.48;;;9.30;;
80381;SDS011;69692;55.820;37.490;2024-01-15T09:16:01;17.83;;;9.68;;
80381;SDS011;69692;55.820;37.490;2024-01-15T09:18:27;18.10;;;9.68;;
80381;SDS011;69692;55.820;37.490;2024-01-15T09:20:53;24.27;;;11.50;;
80381;SDS011;69692;55.820;37.490;2024-01-15T09:23:19;22.63;;;10.57;;
80381;SDS011;69692;55.820;37.490;2024-01-15T09:25:45;14.60;;;8.80;;
80381;SDS011;69692;55.820;37.490;2024-01-15T09:28:11;14.85;;;9.10;;
80381;SDS011;69692;55.820;37.490;2024-01-15T09:30:37;15.38;;;9.27;;
80381;SDS011;69692;55.820;37.490;2024-01-15T09:33:03;17.23;;;9.27;;
80381;SDS011;69692;55.820;37.490;2024-01-15T09:35:29;17.70;;;9.73;;
80381;SDS011;69692;55.820;37.490;2024-01-15T09:37:55;18.00;;;10.65;;
80381;SDS011;69692;55.820;37.490;2024-01-15T09:40:21;15.25;;;9.40;;
80381;SDS011;69692;55.820;37.490;2024-01-15T09:42:47;16.13;;;9.85;;
80381;SDS011;69692;55.820;37.490;2024-01-15T09:45:13;16.58;;;10.23;;
80381;SDS011;69692;55.820;37.490;2024-01-15T09:47:39;17.08;;;9.15;;
80381;SDS011;69692;55.820;37.490;2024-01-15T09:50:07;16.60;;;9.23;;
80381;SDS011;69692;55.820;37.490;2024-01-15T09:52:33;18.33;;;10.95;;
80381;SDS011;69692;55.820;37.490;2024-01-15T09:55:01;17.98;;;10.13;;
80381;SDS011;69692;55.820;37.490;2024-01-15T09:57:31;17.13;;;10.38;;
80381;SDS011;69692;55.820;37.490;2024-01-15T09:59:57;21.75;;;10.98;;
80381;SDS011;69692;55.820;37.490;2024-01-15T10:02:25;19.08;;;11.02;;
80381;SDS011;69692;55.820;37.490;2024-01-15T10:04:51;17.65;;;9.77;;
80381;SDS011;69692;55.820;37.490;2024-01-15T10:07:16;14.70;;;10.27;;
80381;SDS011;69692;55.820;37.490;2024-01-15T10:09:45;16.77;;;9.68;;
80381;SDS011;69692;55.820;37.490;2024-01-15T10:12:12;15.95;;;8.60;;
80381;SDS011;69692;55.820;37.490;2024-01-15T10:14:38;18.13;;;10.20;;
80381;SDS011;69692;55.820;37.490;2024-01-15T10:17:13;16.33;;;9.75;;
80381;SDS011;69692;55.820;37.490;2024-01-15T10:19:40;14.95;;;9.60;;
80381;SDS011;69692;55.820;37.490;2024-01-15T10:22:09;14.80;;;8.98;;
80381;SDS011;69692;55.820;37.490;2024-01-15T10:24:39;16.25;;;9.70;;
80381;SDS011;69692;55.820;37.490;2024-01-15T10:27:07;19.42;;;9.77;;
80381;SDS011;69692;55.820;37.490;2024-01-15T10:29:34;14.18;;;8.82;;
80381;SDS011;69692;55.820;37.490;2024-01-15T10:32:01;16.50;;;8.88;;
80381;SDS011;69692;55.820;37.490;2024-01-15T10:34:27;14.13;;;9.63;;
80381;SDS011;69692;55.820;37.490;2024-01-15T10:36:53;13.77;;;8.02;;
80381;SDS011;69692;55.820;37.490;2024-01-15T10:39:22;18.10;;;9.07;;
80381;SDS011;69692;55.820;37.490;2024-01-15T10:41:49;20.25;;;10.35;;
80381;SDS011;69692;55.820;37.490;2024-01-15T10:44:17;14.95;;;8.45;;
80381;SDS011;69692;55.820;37.490;2024-01-15T10:46:43;13.32;;;8.30;;
80381;SDS011;69692;55.820;37.490;2024-01-15T10:49:11;18.42;;;9.82;;
80381;SDS011;69692;55.820;37.490;2024-01-15T10:51:37;16.67;;;8.90;;
80381;SDS011;69692;55.820;37.490;2024-01-15T10:54:04;16.73;;;9.55;;
80381;SDS011;69692;55.820;37.490;2024-01-15T10:56:33;18.38;;;10.25;;
80381;SDS011;69692;55.820;37.490;2024-01-15T10:59:00;13.70;;;8.93;;
80381;SDS011;69692;55.820;37.490;2024-01-15T11:01:28;18.02;;;9.60;;
80381;SDS011;69692;55.820;37.490;2024-01-15T11:03:54;19.60;;;9.52;;
80381;SDS011;69692;55.820;37.490;2024-01-15T11:06:23;20.05;;;9.75;;
80381;SDS011;69692;55.820;37.490;2024-01-15T11:08:50;16.30;;;9.60;;
80381;SDS011;69692;55.820;37.490;2024-01-15T11:11:18;16.63;;;9.38;;
80381;SDS011;69692;55.820;37.490;2024-01-15T11:13:46;16.15;;;9.60;;
80381;SDS011;69692;55.820;37.490;2024-01-15T11:16:15;15.30;;;8.75;;
80381;SDS011;69692;55.820;37.490;2024-01-15T11:18:42;16.77;;;10.57;;
80381;SDS011;69692;55.820;37.490;2024-01-15T11:21:26;15.98;;;9.82;;
80381;SDS011;69692;55.820;37.490;2024-01-15T11:23:56;18.73;;;9.68;;
80381;SDS011;69692;55.820;37.490;2024-01-15T11:29:02;14.68;;;9.50;;
80381;SDS011;69692;55.820;37.490;2024-01-15T11:31:29;16.70;;;9.80;;
80381;SDS011;69692;55.820;37.490;2024-01-15T11:34:15;15.20;;;9.20;;
80381;SDS011;69692;55.820;37.490;2024-01-15T11:41:55;17.20;;;9.63;;
80381;SDS011;69692;55.820;37.490;2024-01-15T11:44:22;16.70;;;9.73;;
80381;SDS011;69692;55.820;37.490;2024-01-15T11:47:10;15.98;;;9.27;;
80381;SDS011;69692;55.820;37.490;2024-01-15T11:52:20;16.30;;;10.23;;
80381;SDS011;69692;55.820;37.490;2024-01-15T11:55:47;16.35;;;9.02;;
80381;SDS011;69692;55.820;37.490;2024-01-15T11:57:42;16.20;;;8.82;;
80381;SDS011;69692;55.820;37.490;2024-01-15T12:00:12;17.08;;;9.25;;
80381;SDS011;69692;55.820;37.490;2024-01-15T12:02:39;14.57;;;8.45;;
80381;SDS011;69692;55.820;37.490;2024-01-15T12:05:09;19.15;;;9.50;;
80381;SDS011;69692;55.820;37.490;2024-01-15T12:07:44;20.45;;;9.35;;
80381;SDS011;69692;55.820;37.490;2024-01-15T12:10:12;17.00;;;10.93;;
80381;SDS011;69692;55.820;37.490;2024-01-15T12:12:57;16.98;;;9.35;;
80381;SDS011;69692;55.820;37.490;2024-01-15T12:15:25;16.60;;;10.77;;
80381;SDS011;69692;55.820;37.490;2024-01-15T12:17:54;13.07;;;8.73;;
80381;SDS011;69692;55.820;37.490;2024-01-15T12:20:24;17.25;;;10.15;;
80381;SDS011;69692;55.820;37.490;2024-01-15T12:22:50;13.60;;;8.43;;
80381;SDS011;69692;55.820;37.490;2024-01-15T12:25:16;17.52;;;10.93;;
80381;SDS011;69692;55.820;37.490;2024-01-15T12:27:43;16.63;;;10.30;;
80381;SDS011;69692;55.820;37.490;2024-01-15T12:30:10;15.65;;;8.68;;
80381;SDS011;69692;55.820;37.490;2024-01-15T12:32:37;15.45;;;8.65;;
80381;SDS011;69692;55.820;37.490;2024-01-15T12:35:03;17.25;;;9.68;;
80381;SDS011;69692;55.820;37.490;2024-01-15T12:37:30;15.23;;;9.02;;
80381;SDS011;69692;55.820;37.490;2024-01-15T12:40:18;19.27;;;10.23;;
80381;SDS011;69692;55.820;37.490;2024-01-15T12:42:44;16.95;;;9.98;;
80381;SDS011;69692;55.820;37.490;2024-01-15T12:45:11;18.35;;;10.57;;
80381;SDS011;69692;55.820;37.490;2024-01-15T12:47:38;17.50;;;10.57;;
80381;SDS011;69692;55.820;37.490;2024-01-15T12:50:11;16.65;;;10.13;;
80381;SDS011;69692;55.820;37.490;2024-01-15T12:52:42;20.60;;;11.35;;
80381;SDS011;69692;55.820;37.490;2024-01-15T12:55:08;21.00;;;11.48;;
80381;SDS011;69692;55.820;37.490;2024-01-15T12:57:35;18.08;;;9.48;;
80381;SDS011;69692;55.820;37.490;2024-01-15T13:00:03;18.42;;;8.77;;
80381;SDS011;69692;55.820;37.490;2024-01-15T13:02:33;17.52;;;10.43;;
80381;SDS011;69692;55.820;37.490;2024-01-15T13:05:00;17.70;;;10.00;;
80381;SDS011;69692;55.820;37.490;2024-01-15T13:07:26;20.48;;;10.63;;
80381;SDS011;69692;55.820;37.490;2024-01-15T13:10:11;24.60;;;9.25;;
80381;SDS011;69692;55.820;37.490;2024-01-15T13:12:37;17.38;;;8.48;;
80381;SDS011;69692;55.820;37.490;2024-01-15T13:15:03;17.35;;;10.35;;
80381;SDS011;69692;55.820;37.490;2024-01-15T13:17:31;14.82;;;9.15;;
80381;SDS011;69692;55.820;37.490;2024-01-15T13:19:57;18.95;;;10.30;;
80381;SDS011;69692;55.820;37.490;2024-01-15T13:22:23;19.60;;;11.35;;
80381;SDS011;69692;55.820;37.490;2024-01-15T13:24:56;21.20;;;11.27;;
80381;SDS011;69692;55.820;37.490;2024-01-15T13:27:21;13.52;;;9.32;;
80381;SDS011;69692;55.820;37.490;2024-01-15T13:29:47;15.57;;;9.25;;
80381;SDS011;69692;55.820;37.490;2024-01-15T13:32:13;17.25;;;8.75;;
80381;SDS011;69692;55.820;37.490;2024-01-15T13:34:49;16.63;;;10.43;;
80381;SDS011;69692;55.820;37.490;2024-01-15T13:37:15;18.02;;;10.35;;
80381;SDS011;69692;55.820;37.490;2024-01-15T13:39:42;18.88;;;10.20;;
80381;SDS011;69692;55.820;37.490;2024-01-15T13:42:08;17.40;;;10.07;;
80381;SDS011;69692;55.820;37.490;2024-01-15T13:44:37;17.90;;;10.90;;
80381;SDS011;69692;55.820;37.490;2024-01-15T13:47:03;16.25;;;9.95;;
80381;SDS011;69692;55.820;37.490;2024-01-15T13:49:30;18.58;;;10.55;;
80381;SDS011;69692;55.820;37.490;2024-01-15T13:51:56;18.75;;;10.77;;
80381;SDS011;69692;55.820;37.490;2024-01-15T13:54:41;17.85;;;11.23;;
80381;SDS011;69692;55.820;37.490;2024-01-15T13:57:07;18.73;;;11.05;;
80381;SDS011;69692;55.820;37.490;2024-01-15T13:59:33;17.00;;;10.45;;
80381;SDS011;69692;55.820;37.490;2024-01-15T14:01:59;22.35;;;11.25;;
80381;SDS011;69692;55.820;37.490;2024-01-15T14:04:25;19.10;;;10.13;;
80381;SDS011;69692;55.820;37.490;2024-01-15T14:06:52;17.67;;;9.70;;
80381;SDS011;69692;55.820;37.490;2024-01-15T14:09:17;17.88;;;10.93;;
80381;SDS011;69692;55.820;37.490;2024-01-15T14:11:47;19.30;;;9.05;;
80381;SDS011;69692;55.820;37.490;2024-01-15T14:14:14;18.83;;;10.02;;
80381;SDS011;69692;55.820;37.490;2024-01-15T14:16:39;18.77;;;11.05;;
80381;SDS011;69692;55.820;37.490;2024-01-15T14:19:05;20.60;;;12.18;;
80381;SDS011;69692;55.820;37.490;2024-01-15T14:21:35;20.38;;;10.98;;
80381;SDS011;69692;55.820;37.490;2024-01-15T14:24:01;17.02;;;10.07;;
80381;SDS011;69692;55.820;37.490;2024-01-15T14:26:27;18.20;;;10.43;;